Terminal Aerodrome Forecast
Issued by NWS Flagstaff, AZ

Home | Current Version | Previous Version | Text Only | Print | Product List | Glossary On
Versions: 1 2 3 4 5 6 7 8 9 10 11 12 13 14 15 16 17 18 19 20 21 22 23
602
FTUS45 KFGZ 201120
TAFFLG
TAF
KFLG 201120Z 2012/2112 VRB05KT P6SM FEW050 SCT100
     FM201800 21010KT P6SM BKN050
      TEMPO 2019/2023 VRB10G20KT 5SM TSRA BKN050CB
     FM210300 24005KT P6SM FEW050 SCT100=

USA.gov is the U.S. government's official web portal to all federal, state and local government web resources and services.